Gainesville, VA (20155)

6:44 PM EDT on May 30, 2015 (GMT -0400)
HopeWells Landing | | Change Station
CLOSE
Current Station
Personal Weather Station
Location: Gainesville, VA
Elevation: 413 ft
Nearby Weather Stations

Elev 413 ft 38.79 °N, 77.64 °W | Updated 3 minutes ago

Partly Cloudy
Partly Cloudy
85.1 °F
Feels Like 89 °F
N
0.0
Wind Variable Wind from NW

Today
High -- | Low -- °F
--% Chance of Precip.
Yesterday
High -- | Low -- °F
Precip. -- in
5:48 AM 8:28 PM
Waxing Gibbous, 92% visible
Pressure 30.06 in
Visibility 10.0 miles
Clouds Few 6000 ft
Heat Index 89 °F
Dew Point 68 °F
Humidity 57%
Rainfall in
Snow Depth Not available.
UV 3 out of 12
Pollen 8.80 out of 12
Air Quality Not available.
Flu Activity Sporadic
METAR KHEF 302145Z 19009G15KT 10SM FEW060 30/17 A3006

More Conditions Fewer Conditions

Pressure 30.06 in
Visibility 10.0 miles
Clouds Few 6000 ft
Heat Index 89 °F
Dew Point 68 °F
Humidity 57%
Rainfall in
Snow Depth Not available.
UV 3 out of 12
Pollen 8.80 out of 12
Air Quality Not available.
Flu Activity Sporadic
METAR KHEF 302145Z 19009G15KT 10SM FEW060 30/17 A3006

More Conditions Fewer Conditions

10-Day Weather Forecast

Almanac

Astronomy

May. 30, 2015 Rise Set
Actual Time
Civil Twilight
Nautical Twilight
Astronomical Twilight
Moon
Length of Visible Light
Length of Day
Tomorrow will be .
, % of the Moon is Illuminated

Today's Extremes

State Highs State Lows

Community

WunderPhotos

Upload Photos

1,825,609 photos uploaded!

WunderBlogs® & News

Nearby

Air Quality

  Air Quality AQ Index Pollutant
Not available.

Snow Depth

Station Depth Elevation

Earthquake Activity

City Distance Mag. Time & Date
Minimum magnitude displayed is 2.5.

Coastal Water Temperatures

Place Temperature

Stations

Nearby Weather Stations

Station Location Temp. Windchill Dew Point Humidity Wind Precip. Elev Updated Type